sensor_id;sensor_type;location;lat;lon;timestamp;P1;durP1;ratioP1;P2;durP2;ratioP2
33266;SDS011;19638;49.080;11.896;2022-07-25T00:03:46;11.35;;;8.18;;
33266;SDS011;19638;49.080;11.896;2022-07-25T00:07:49;9.55;;;8.32;;
33266;SDS011;19638;49.080;11.896;2022-07-25T00:11:53;12.10;;;8.57;;
33266;SDS011;19638;49.080;11.896;2022-07-25T00:15:57;9.63;;;8.60;;
33266;SDS011;19638;49.080;11.896;2022-07-25T00:20:00;11.43;;;9.30;;
33266;SDS011;19638;49.080;11.896;2022-07-25T00:24:04;14.63;;;9.35;;
33266;SDS011;19638;49.080;11.896;2022-07-25T00:28:08;10.13;;;8.80;;
33266;SDS011;19638;49.080;11.896;2022-07-25T00:32:13;14.18;;;8.85;;
33266;SDS011;19638;49.080;11.896;2022-07-25T00:36:16;14.25;;;9.45;;
33266;SDS011;19638;49.080;11.896;2022-07-25T00:40:19;11.98;;;9.02;;
33266;SDS011;19638;49.080;11.896;2022-07-25T00:44:23;13.77;;;9.30;;
33266;SDS011;19638;49.080;11.896;2022-07-25T00:48:28;11.43;;;8.57;;
33266;SDS011;19638;49.080;11.896;2022-07-25T00:52:32;10.90;;;8.30;;
33266;SDS011;19638;49.080;11.896;2022-07-25T00:56:36;9.32;;;7.70;;
33266;SDS011;19638;49.080;11.896;2022-07-25T01:00:39;10.20;;;8.65;;
33266;SDS011;19638;49.080;11.896;2022-07-25T01:04:44;12.43;;;8.57;;
33266;SDS011;19638;49.080;11.896;2022-07-25T01:08:47;11.32;;;8.30;;
33266;SDS011;19638;49.080;11.896;2022-07-25T01:12:52;9.88;;;8.25;;
33266;SDS011;19638;49.080;11.896;2022-07-25T01:16:55;10.63;;;8.63;;
33266;SDS011;19638;49.080;11.896;2022-07-25T01:21:00;10.32;;;7.97;;
33266;SDS011;19638;49.080;11.896;2022-07-25T01:25:03;9.57;;;8.05;;
33266;SDS011;19638;49.080;11.896;2022-07-25T01:29:07;12.15;;;8.57;;
33266;SDS011;19638;49.080;11.896;2022-07-25T01:33:13;13.02;;;8.48;;
33266;SDS011;19638;49.080;11.896;2022-07-25T01:37:18;10.95;;;8.48;;
33266;SDS011;19638;49.080;11.896;2022-07-25T01:41:21;12.38;;;9.23;;
33266;SDS011;19638;49.080;11.896;2022-07-25T01:45:24;9.57;;;8.60;;
33266;SDS011;19638;49.080;11.896;2022-07-25T01:49:28;10.27;;;8.57;;
33266;SDS011;19638;49.080;11.896;2022-07-25T01:53:33;11.57;;;9.35;;
33266;SDS011;19638;49.080;11.896;2022-07-25T01:57:36;15.18;;;9.38;;
33266;SDS011;19638;49.080;11.896;2022-07-25T02:01:40;10.27;;;8.80;;
33266;SDS011;19638;49.080;11.896;2022-07-25T02:05:43;9.02;;;8.10;;
33266;SDS011;19638;49.080;11.896;2022-07-25T02:09:48;11.32;;;9.60;;
33266;SDS011;19638;49.080;11.896;2022-07-25T02:13:57;10.68;;;8.88;;
33266;SDS011;19638;49.080;11.896;2022-07-25T02:18:00;21.15;;;8.93;;
33266;SDS011;19638;49.080;11.896;2022-07-25T02:22:03;12.18;;;9.18;;
33266;SDS011;19638;49.080;11.896;2022-07-25T02:26:13;11.82;;;9.00;;
33266;SDS011;19638;49.080;11.896;2022-07-25T02:30:16;9.93;;;8.93;;
33266;SDS011;19638;49.080;11.896;2022-07-25T02:34:19;13.95;;;8.82;;
33266;SDS011;19638;49.080;11.896;2022-07-25T02:38:22;11.63;;;8.95;;
33266;SDS011;19638;49.080;11.896;2022-07-25T02:42:28;9.85;;;8.85;;
33266;SDS011;19638;49.080;11.896;2022-07-25T02:46:31;12.63;;;8.98;;
33266;SDS011;19638;49.080;11.896;2022-07-25T02:50:34;11.55;;;8.25;;
33266;SDS011;19638;49.080;11.896;2022-07-25T02:54:37;15.68;;;9.55;;
33266;SDS011;19638;49.080;11.896;2022-07-25T02:58:42;11.38;;;9.77;;
33266;SDS011;19638;49.080;11.896;2022-07-25T03:02:45;14.63;;;9.48;;
33266;SDS011;19638;49.080;11.896;2022-07-25T03:06:49;11.57;;;9.55;;
33266;SDS011;19638;49.080;11.896;2022-07-25T03:10:53;13.10;;;9.57;;
33266;SDS011;19638;49.080;11.896;2022-07-25T03:14:59;12.10;;;9.52;;
33266;SDS011;19638;49.080;11.896;2022-07-25T03:19:04;13.50;;;9.77;;
33266;SDS011;19638;49.080;11.896;2022-07-25T03:23:10;12.23;;;9.80;;
33266;SDS011;19638;49.080;11.896;2022-07-25T03:27:14;12.25;;;9.90;;
33266;SDS011;19638;49.080;11.896;2022-07-25T03:31:18;14.40;;;9.70;;
33266;SDS011;19638;49.080;11.896;2022-07-25T03:35:22;12.57;;;9.18;;
33266;SDS011;19638;49.080;11.896;2022-07-25T03:39:26;14.75;;;11.30;;
33266;SDS011;19638;49.080;11.896;2022-07-25T03:43:30;14.00;;;10.60;;
33266;SDS011;19638;49.080;11.896;2022-07-25T03:47:34;16.13;;;10.75;;
33266;SDS011;19638;49.080;11.896;2022-07-25T03:51:37;13.98;;;10.52;;
33266;SDS011;19638;49.080;11.896;2022-07-25T03:55:41;16.20;;;10.68;;
33266;SDS011;19638;49.080;11.896;2022-07-25T03:59:44;17.55;;;10.98;;
33266;SDS011;19638;49.080;11.896;2022-07-25T04:03:49;18.33;;;11.40;;
33266;SDS011;19638;49.080;11.896;2022-07-25T04:07:52;14.15;;;10.52;;
33266;SDS011;19638;49.080;11.896;2022-07-25T04:11:56;13.38;;;10.23;;
33266;SDS011;19638;49.080;11.896;2022-07-25T04:15:59;13.30;;;10.60;;
33266;SDS011;19638;49.080;11.896;2022-07-25T04:20:06;13.90;;;10.60;;
33266;SDS011;19638;49.080;11.896;2022-07-25T04:24:10;14.88;;;10.88;;
33266;SDS011;19638;49.080;11.896;2022-07-25T04:28:13;13.63;;;11.05;;
33266;SDS011;19638;49.080;11.896;2022-07-25T04:32:16;13.30;;;10.27;;
33266;SDS011;19638;49.080;11.896;2022-07-25T04:36:25;11.82;;;10.05;;
33266;SDS011;19638;49.080;11.896;2022-07-25T04:40:28;17.55;;;10.68;;
33266;SDS011;19638;49.080;11.896;2022-07-25T04:44:32;17.65;;;10.35;;
33266;SDS011;19638;49.080;11.896;2022-07-25T04:48:35;11.50;;;9.10;;
33266;SDS011;19638;49.080;11.896;2022-07-25T04:52:40;11.23;;;9.52;;
33266;SDS011;19638;49.080;11.896;2022-07-25T04:56:43;11.38;;;9.70;;
33266;SDS011;19638;49.080;11.896;2022-07-25T05:00:46;10.88;;;8.73;;
33266;SDS011;19638;49.080;11.896;2022-07-25T05:04:50;13.25;;;9.38;;
33266;SDS011;19638;49.080;11.896;2022-07-25T05:08:54;9.73;;;8.65;;
33266;SDS011;19638;49.080;11.896;2022-07-25T05:12:58;11.63;;;9.18;;
33266;SDS011;19638;49.080;11.896;2022-07-25T05:17:01;11.65;;;9.13;;
33266;SDS011;19638;49.080;11.896;2022-07-25T05:21:04;11.38;;;9.00;;
33266;SDS011;19638;49.080;11.896;2022-07-25T05:25:12;12.77;;;9.55;;
33266;SDS011;19638;49.080;11.896;2022-07-25T05:29:15;10.30;;;9.05;;
33266;SDS011;19638;49.080;11.896;2022-07-25T05:33:19;14.15;;;8.98;;
33266;SDS011;19638;49.080;11.896;2022-07-25T05:37:22;10.20;;;8.63;;
33266;SDS011;19638;49.080;11.896;2022-07-25T05:41:27;9.68;;;8.38;;
33266;SDS011;19638;49.080;11.896;2022-07-25T05:45:30;10.35;;;8.20;;
33266;SDS011;19638;49.080;11.896;2022-07-25T05:49:33;9.38;;;7.88;;
33266;SDS011;19638;49.080;11.896;2022-07-25T05:53:36;9.00;;;7.60;;
33266;SDS011;19638;49.080;11.896;2022-07-25T05:57:41;11.48;;;7.93;;
33266;SDS011;19638;49.080;11.896;2022-07-25T06:01:44;12.77;;;7.18;;
33266;SDS011;19638;49.080;11.896;2022-07-25T06:05:48;11.68;;;8.27;;
33266;SDS011;19638;49.080;11.896;2022-07-25T06:09:51;8.57;;;7.32;;
33266;SDS011;19638;49.080;11.896;2022-07-25T06:13:56;7.78;;;6.97;;
33266;SDS011;19638;49.080;11.896;2022-07-25T06:18:00;9.85;;;7.63;;
33266;SDS011;19638;49.080;11.896;2022-07-25T06:22:03;8.60;;;7.30;;
33266;SDS011;19638;49.080;11.896;2022-07-25T06:26:07;13.23;;;7.07;;
33266;SDS011;19638;49.080;11.896;2022-07-25T06:30:12;8.68;;;6.32;;
33266;SDS011;19638;49.080;11.896;2022-07-25T06:34:20;9.73;;;6.90;;
33266;SDS011;19638;49.080;11.896;2022-07-25T06:38:29;9.00;;;6.93;;
33266;SDS011;19638;49.080;11.896;2022-07-25T06:42:32;8.77;;;6.63;;
33266;SDS011;19638;49.080;11.896;2022-07-25T06:46:41;9.48;;;6.72;;
33266;SDS011;19638;49.080;11.896;2022-07-25T06:50:44;8.00;;;7.05;;
33266;SDS011;19638;49.080;11.896;2022-07-25T06:54:47;8.20;;;6.75;;
33266;SDS011;19638;49.080;11.896;2022-07-25T06:58:51;8.45;;;6.72;;
33266;SDS011;19638;49.080;11.896;2022-07-25T07:02:57;6.97;;;6.35;;
33266;SDS011;19638;49.080;11.896;2022-07-25T07:07:02;8.75;;;6.20;;
33266;SDS011;19638;49.080;11.896;2022-07-25T07:11:06;8.18;;;6.38;;
33266;SDS011;19638;49.080;11.896;2022-07-25T07:15:09;7.18;;;6.47;;
33266;SDS011;19638;49.080;11.896;2022-07-25T07:19:15;9.32;;;6.40;;
33266;SDS011;19638;49.080;11.896;2022-07-25T07:23:18;6.97;;;6.32;;
33266;SDS011;19638;49.080;11.896;2022-07-25T07:27:21;7.72;;;6.05;;
33266;SDS011;19638;49.080;11.896;2022-07-25T07:31:25;6.72;;;6.10;;
33266;SDS011;19638;49.080;11.896;2022-07-25T07:35:29;10.02;;;6.80;;
33266;SDS011;19638;49.080;11.896;2022-07-25T07:39:36;8.60;;;6.15;;
33266;SDS011;19638;49.080;11.896;2022-07-25T07:43:39;6.57;;;5.97;;
33266;SDS011;19638;49.080;11.896;2022-07-25T07:47:43;7.05;;;6.32;;
33266;SDS011;19638;49.080;11.896;2022-07-25T07:51:49;6.63;;;6.03;;
33266;SDS011;19638;49.080;11.896;2022-07-25T07:55:53;7.95;;;6.30;;
33266;SDS011;19638;49.080;11.896;2022-07-25T07:59:56;6.78;;;6.18;;
33266;SDS011;19638;49.080;11.896;2022-07-25T08:04:00;7.15;;;6.50;;
33266;SDS011;19638;49.080;11.896;2022-07-25T08:08:05;7.25;;;6.50;;
33266;SDS011;19638;49.080;11.896;2022-07-25T08:12:09;13.13;;;6.90;;
33266;SDS011;19638;49.080;11.896;2022-07-25T08:16:12;7.70;;;6.20;;
33266;SDS011;19638;49.080;11.896;2022-07-25T08:20:15;8.27;;;6.32;;
33266;SDS011;19638;49.080;11.896;2022-07-25T08:24:39;7.20;;;6.50;;
33266;SDS011;19638;49.080;11.896;2022-07-25T08:28:43;7.28;;;6.47;;
33266;SDS011;19638;49.080;11.896;2022-07-25T08:32:47;7.22;;;6.53;;
33266;SDS011;19638;49.080;11.896;2022-07-25T08:36:53;7.63;;;6.63;;
33266;SDS011;19638;49.080;11.896;2022-07-25T08:40:58;8.60;;;7.13;;
33266;SDS011;19638;49.080;11.896;2022-07-25T08:45:04;7.55;;;6.30;;
33266;SDS011;19638;49.080;11.896;2022-07-25T08:49:09;7.10;;;6.40;;
33266;SDS011;19638;49.080;11.896;2022-07-25T08:53:13;8.00;;;7.20;;
33266;SDS011;19638;49.080;11.896;2022-07-25T08:57:36;7.63;;;6.93;;
33266;SDS011;19638;49.080;11.896;2022-07-25T09:01:41;8.60;;;6.63;;
33266;SDS011;19638;49.080;11.896;2022-07-25T09:05:45;8.20;;;7.05;;
33266;SDS011;19638;49.080;11.896;2022-07-25T09:09:48;7.75;;;7.05;;
33266;SDS011;19638;49.080;11.896;2022-07-25T09:13:57;11.80;;;7.43;;
33266;SDS011;19638;49.080;11.896;2022-07-25T09:18:08;7.97;;;6.80;;
33266;SDS011;19638;49.080;11.896;2022-07-25T09:22:16;8.38;;;6.63;;
33266;SDS011;19638;49.080;11.896;2022-07-25T09:26:19;8.32;;;7.20;;
33266;SDS011;19638;49.080;11.896;2022-07-25T09:30:24;7.85;;;7.05;;
33266;SDS011;19638;49.080;11.896;2022-07-25T09:34:34;6.93;;;6.30;;
33266;SDS011;19638;49.080;11.896;2022-07-25T09:38:38;7.72;;;6.50;;
33266;SDS011;19638;49.080;11.896;2022-07-25T09:42:41;8.27;;;7.45;;
33266;SDS011;19638;49.080;11.896;2022-07-25T09:46:48;7.65;;;6.43;;
33266;SDS011;19638;49.080;11.896;2022-07-25T09:50:51;6.80;;;6.20;;
33266;SDS011;19638;49.080;11.896;2022-07-25T09:54:56;7.18;;;6.25;;
33266;SDS011;19638;49.080;11.896;2022-07-25T09:59:00;7.40;;;6.47;;
33266;SDS011;19638;49.080;11.896;2022-07-25T10:03:16;8.50;;;6.65;;
33266;SDS011;19638;49.080;11.896;2022-07-25T10:07:20;8.45;;;6.25;;
33266;SDS011;19638;49.080;11.896;2022-07-25T10:11:31;7.78;;;6.97;;
33266;SDS011;19638;49.080;11.896;2022-07-25T10:15:38;6.90;;;6.20;;
33266;SDS011;19638;49.080;11.896;2022-07-25T10:19:44;7.50;;;6.35;;
33266;SDS011;19638;49.080;11.896;2022-07-25T10:23:56;6.25;;;5.80;;
33266;SDS011;19638;49.080;11.896;2022-07-25T10:28:06;7.32;;;6.63;;
33266;SDS011;19638;49.080;11.896;2022-07-25T10:32:10;7.03;;;6.32;;
33266;SDS011;19638;49.080;11.896;2022-07-25T10:36:16;6.75;;;6.25;;
33266;SDS011;19638;49.080;11.896;2022-07-25T10:40:26;7.95;;;6.47;;
33266;SDS011;19638;49.080;11.896;2022-07-25T10:44:38;8.10;;;6.78;;
33266;SDS011;19638;49.080;11.896;2022-07-25T10:48:43;8.93;;;7.13;;
33266;SDS011;19638;49.080;11.896;2022-07-25T10:52:56;9.55;;;6.70;;
33266;SDS011;19638;49.080;11.896;2022-07-25T10:57:00;10.23;;;7.65;;
33266;SDS011;19638;49.080;11.896;2022-07-25T11:01:05;7.43;;;6.80;;
33266;SDS011;19638;49.080;11.896;2022-07-25T11:05:08;7.22;;;6.25;;
33266;SDS011;19638;49.080;11.896;2022-07-25T11:09:15;7.32;;;6.72;;
33266;SDS011;19638;49.080;11.896;2022-07-25T11:13:26;8.20;;;7.40;;
33266;SDS011;19638;49.080;11.896;2022-07-25T11:17:30;10.90;;;7.68;;
33266;SDS011;19638;49.080;11.896;2022-07-25T11:21:42;7.35;;;6.75;;
33266;SDS011;19638;49.080;11.896;2022-07-25T11:25:47;7.75;;;7.05;;
33266;SDS011;19638;49.080;11.896;2022-07-25T11:29:52;7.85;;;7.05;;
33266;SDS011;19638;49.080;11.896;2022-07-25T11:33:55;10.23;;;7.05;;
33266;SDS011;19638;49.080;11.896;2022-07-25T11:37:58;8.15;;;7.22;;
33266;SDS011;19638;49.080;11.896;2022-07-25T11:42:05;8.07;;;7.00;;
33266;SDS011;19638;49.080;11.896;2022-07-25T11:46:09;7.15;;;6.18;;
33266;SDS011;19638;49.080;11.896;2022-07-25T11:50:13;10.25;;;6.03;;
33266;SDS011;19638;49.080;11.896;2022-07-25T11:54:17;6.80;;;6.15;;
33266;SDS011;19638;49.080;11.896;2022-07-25T11:58:23;10.45;;;6.50;;
33266;SDS011;19638;49.080;11.896;2022-07-25T12:02:27;7.95;;;6.63;;
33266;SDS011;19638;49.080;11.896;2022-07-25T12:06:32;7.40;;;6.68;;
33266;SDS011;19638;49.080;11.896;2022-07-25T12:10:38;8.30;;;6.70;;
33266;SDS011;19638;49.080;11.896;2022-07-25T12:14:45;7.05;;;6.45;;
33266;SDS011;19638;49.080;11.896;2022-07-25T12:18:48;7.20;;;6.50;;
33266;SDS011;19638;49.080;11.896;2022-07-25T12:22:52;9.45;;;6.88;;
33266;SDS011;19638;49.080;11.896;2022-07-25T12:26:57;7.20;;;6.63;;
33266;SDS011;19638;49.080;11.896;2022-07-25T12:31:02;6.53;;;5.97;;
33266;SDS011;19638;49.080;11.896;2022-07-25T12:35:06;8.35;;;7.30;;
33266;SDS011;19638;49.080;11.896;2022-07-25T12:39:13;6.95;;;6.32;;
33266;SDS011;19638;49.080;11.896;2022-07-25T12:43:21;6.82;;;6.22;;
33266;SDS011;19638;49.080;11.896;2022-07-25T12:47:26;6.63;;;6.03;;
33266;SDS011;19638;49.080;11.896;2022-07-25T12:51:30;7.07;;;6.45;;
33266;SDS011;19638;49.080;11.896;2022-07-25T12:55:33;7.40;;;6.68;;
33266;SDS011;19638;49.080;11.896;2022-07-25T12:59:37;7.63;;;6.93;;
33266;SDS011;19638;49.080;11.896;2022-07-25T13:03:42;7.40;;;6.68;;
33266;SDS011;19638;49.080;11.896;2022-07-25T13:07:45;8.00;;;7.20;;
33266;SDS011;19638;49.080;11.896;2022-07-25T13:11:49;7.53;;;6.70;;
33266;SDS011;19638;49.080;11.896;2022-07-25T13:15:52;7.00;;;6.40;;
33266;SDS011;19638;49.080;11.896;2022-07-25T13:19:57;7.38;;;6.68;;
33266;SDS011;19638;49.080;11.896;2022-07-25T13:24:00;7.93;;;7.00;;
33266;SDS011;19638;49.080;11.896;2022-07-25T13:28:04;8.80;;;6.57;;
33266;SDS011;19638;49.080;11.896;2022-07-25T13:32:11;7.78;;;6.97;;
33266;SDS011;19638;49.080;11.896;2022-07-25T13:36:16;7.60;;;6.18;;
33266;SDS011;19638;49.080;11.896;2022-07-25T13:40:21;9.98;;;6.25;;
33266;SDS011;19638;49.080;11.896;2022-07-25T13:44:25;7.93;;;6.95;;
33266;SDS011;19638;49.080;11.896;2022-07-25T13:48:28;6.93;;;6.30;;
33266;SDS011;19638;49.080;11.896;2022-07-25T13:52:33;7.00;;;6.18;;
33266;SDS011;19638;49.080;11.896;2022-07-25T13:56:36;6.68;;;6.07;;
33266;SDS011;19638;49.080;11.896;2022-07-25T14:00:41;7.03;;;5.90;;
33266;SDS011;19638;49.080;11.896;2022-07-25T14:04:44;6.57;;;5.97;;
33266;SDS011;19638;49.080;11.896;2022-07-25T14:08:49;6.57;;;5.85;;
33266;SDS011;19638;49.080;11.896;2022-07-25T14:12:55;6.03;;;5.53;;
33266;SDS011;19638;49.080;11.896;2022-07-25T14:16:58;6.50;;;6.00;;
33266;SDS011;19638;49.080;11.896;2022-07-25T14:21:02;6.90;;;6.20;;
33266;SDS011;19638;49.080;11.896;2022-07-25T14:25:07;6.28;;;5.78;;
33266;SDS011;19638;49.080;11.896;2022-07-25T14:29:11;6.78;;;6.18;;
33266;SDS011;19638;49.080;11.896;2022-07-25T14:33:14;6.03;;;5.53;;
33266;SDS011;19638;49.080;11.896;2022-07-25T14:37:18;6.45;;;5.80;;
33266;SDS011;19638;49.080;11.896;2022-07-25T14:41:25;6.68;;;5.70;;
33266;SDS011;19638;49.080;11.896;2022-07-25T14:45:28;5.75;;;5.20;;
33266;SDS011;19638;49.080;11.896;2022-07-25T14:49:32;5.70;;;5.30;;
33266;SDS011;19638;49.080;11.896;2022-07-25T14:53:35;9.25;;;5.90;;
33266;SDS011;19638;49.080;11.896;2022-07-25T14:57:40;6.03;;;5.53;;
33266;SDS011;19638;49.080;11.896;2022-07-25T15:01:45;5.55;;;5.15;;
33266;SDS011;19638;49.080;11.896;2022-07-25T15:05:49;6.05;;;5.45;;
33266;SDS011;19638;49.080;11.896;2022-07-25T15:09:52;7.45;;;5.38;;
33266;SDS011;19638;49.080;11.896;2022-07-25T15:13:56;7.35;;;5.80;;
33266;SDS011;19638;49.080;11.896;2022-07-25T15:18:00;6.72;;;5.38;;
33266;SDS011;19638;49.080;11.896;2022-07-25T15:22:03;5.53;;;4.57;;
33266;SDS011;19638;49.080;11.896;2022-07-25T15:26:09;3.50;;;3.30;;
33266;SDS011;19638;49.080;11.896;2022-07-25T15:30:18;3.63;;;3.33;;
33266;SDS011;19638;49.080;11.896;2022-07-25T15:34:27;3.67;;;3.38;;
33266;SDS011;19638;49.080;11.896;2022-07-25T15:38:31;3.78;;;3.50;;
33266;SDS011;19638;49.080;11.896;2022-07-25T15:42:35;3.15;;;2.90;;
33266;SDS011;19638;49.080;11.896;2022-07-25T15:46:41;3.85;;;3.20;;
33266;SDS011;19638;49.080;11.896;2022-07-25T15:50:47;3.88;;;3.33;;
33266;SDS011;19638;49.080;11.896;2022-07-25T15:54:52;6.82;;;3.72;;
33266;SDS011;19638;49.080;11.896;2022-07-25T15:58:55;3.78;;;3.50;;
33266;SDS011;19638;49.080;11.896;2022-07-25T16:02:59;3.70;;;3.40;;
33266;SDS011;19638;49.080;11.896;2022-07-25T16:07:03;3.60;;;3.30;;
33266;SDS011;19638;49.080;11.896;2022-07-25T16:11:06;3.58;;;3.28;;
33266;SDS011;19638;49.080;11.896;2022-07-25T16:15:09;3.70;;;3.47;;
33266;SDS011;19638;49.080;11.896;2022-07-25T16:19:14;3.92;;;3.63;;
33266;SDS011;19638;49.080;11.896;2022-07-25T16:23:18;6.05;;;3.47;;
33266;SDS011;19638;49.080;11.896;2022-07-25T16:27:23;5.35;;;3.40;;
33266;SDS011;19638;49.080;11.896;2022-07-25T16:31:26;3.92;;;3.53;;
33266;SDS011;19638;49.080;11.896;2022-07-25T16:35:31;6.55;;;3.65;;
33266;SDS011;19638;49.080;11.896;2022-07-25T16:39:34;4.43;;;3.55;;
33266;SDS011;19638;49.080;11.896;2022-07-25T16:43:37;7.55;;;3.95;;
33266;SDS011;19638;49.080;11.896;2022-07-25T16:47:42;3.42;;;3.22;;
33266;SDS011;19638;49.080;11.896;2022-07-25T16:51:46;4.82;;;3.55;;
33266;SDS011;19638;49.080;11.896;2022-07-25T16:55:50;4.63;;;3.50;;
33266;SDS011;19638;49.080;11.896;2022-07-25T16:59:53;4.30;;;3.65;;
33266;SDS011;19638;49.080;11.896;2022-07-25T17:03:56;9.95;;;3.55;;
33266;SDS011;19638;49.080;11.896;2022-07-25T17:08:01;13.45;;;3.97;;
33266;SDS011;19638;49.080;11.896;2022-07-25T17:12:05;8.18;;;3.78;;
33266;SDS011;19638;49.080;11.896;2022-07-25T17:16:09;4.80;;;3.97;;
33266;SDS011;19638;49.080;11.896;2022-07-25T17:20:13;6.20;;;4.03;;
33266;SDS011;19638;49.080;11.896;2022-07-25T17:24:17;5.78;;;3.90;;
33266;SDS011;19638;49.080;11.896;2022-07-25T17:28:21;12.90;;;6.10;;
33266;SDS011;19638;49.080;11.896;2022-07-25T17:32:24;9.73;;;5.95;;
33266;SDS011;19638;49.080;11.896;2022-07-25T17:36:30;10.30;;;6.50;;
33266;SDS011;19638;49.080;11.896;2022-07-25T17:40:35;12.77;;;7.75;;
33266;SDS011;19638;49.080;11.896;2022-07-25T17:44:38;10.30;;;6.70;;
33266;SDS011;19638;49.080;11.896;2022-07-25T17:48:42;10.13;;;7.25;;
33266;SDS011;19638;49.080;11.896;2022-07-25T17:52:45;11.18;;;7.82;;
33266;SDS011;19638;49.080;11.896;2022-07-25T17:56:50;12.45;;;7.80;;
33266;SDS011;19638;49.080;11.896;2022-07-25T18:00:53;16.67;;;9.25;;
33266;SDS011;19638;49.080;11.896;2022-07-25T18:05:01;13.23;;;8.70;;
33266;SDS011;19638;49.080;11.896;2022-07-25T18:09:05;12.85;;;8.63;;
33266;SDS011;19638;49.080;11.896;2022-07-25T18:13:10;13.07;;;8.95;;
33266;SDS011;19638;49.080;11.896;2022-07-25T18:17:15;17.02;;;9.40;;
33266;SDS011;19638;49.080;11.896;2022-07-25T18:21:18;13.13;;;8.85;;
33266;SDS011;19638;49.080;11.896;2022-07-25T18:25:21;13.32;;;8.68;;
33266;SDS011;19638;49.080;11.896;2022-07-25T18:29:26;14.85;;;8.52;;
33266;SDS011;19638;49.080;11.896;2022-07-25T18:33:29;14.68;;;8.75;;
33266;SDS011;19638;49.080;11.896;2022-07-25T18:37:32;15.18;;;8.77;;
33266;SDS011;19638;49.080;11.896;2022-07-25T18:41:37;13.55;;;9.13;;
33266;SDS011;19638;49.080;11.896;2022-07-25T18:45:42;13.07;;;8.55;;
33266;SDS011;19638;49.080;11.896;2022-07-25T18:49:47;12.35;;;8.82;;
33266;SDS011;19638;49.080;11.896;2022-07-25T18:53:50;12.05;;;8.85;;
33266;SDS011;19638;49.080;11.896;2022-07-25T18:57:53;12.70;;;9.05;;
33266;SDS011;19638;49.080;11.896;2022-07-25T19:01:58;15.95;;;9.07;;
33266;SDS011;19638;49.080;11.896;2022-07-25T19:06:02;14.40;;;8.13;;
33266;SDS011;19638;49.080;11.896;2022-07-25T19:10:06;11.13;;;8.45;;
33266;SDS011;19638;49.080;11.896;2022-07-25T19:14:10;12.25;;;8.80;;
33266;SDS011;19638;49.080;11.896;2022-07-25T19:18:15;12.23;;;8.88;;
33266;SDS011;19638;49.080;11.896;2022-07-25T19:22:18;12.70;;;8.93;;
33266;SDS011;19638;49.080;11.896;2022-07-25T19:26:21;12.95;;;8.80;;
33266;SDS011;19638;49.080;11.896;2022-07-25T19:30:25;11.43;;;8.95;;
33266;SDS011;19638;49.080;11.896;2022-07-25T19:34:31;10.65;;;8.25;;
33266;SDS011;19638;49.080;11.896;2022-07-25T19:38:35;13.35;;;9.00;;
33266;SDS011;19638;49.080;11.896;2022-07-25T19:42:39;13.68;;;9.27;;
33266;SDS011;19638;49.080;11.896;2022-07-25T19:46:43;14.30;;;9.80;;
33266;SDS011;19638;49.080;11.896;2022-07-25T19:50:48;12.30;;;8.75;;
33266;SDS011;19638;49.080;11.896;2022-07-25T19:54:51;11.23;;;9.23;;
33266;SDS011;19638;49.080;11.896;2022-07-25T19:58:55;12.38;;;8.77;;
33266;SDS011;19638;49.080;11.896;2022-07-25T20:02:59;13.85;;;9.13;;
33266;SDS011;19638;49.080;11.896;2022-07-25T20:07:03;18.63;;;10.23;;
33266;SDS011;19638;49.080;11.896;2022-07-25T20:11:07;14.82;;;9.80;;
33266;SDS011;19638;49.080;11.896;2022-07-25T20:15:10;14.60;;;9.57;;
33266;SDS011;19638;49.080;11.896;2022-07-25T20:19:14;10.68;;;9.07;;
33266;SDS011;19638;49.080;11.896;2022-07-25T20:23:19;13.40;;;9.07;;
33266;SDS011;19638;49.080;11.896;2022-07-25T20:27:22;16.98;;;9.13;;
33266;SDS011;19638;49.080;11.896;2022-07-25T20:31:25;11.02;;;8.13;;
33266;SDS011;19638;49.080;11.896;2022-07-25T20:35:28;16.60;;;9.68;;
33266;SDS011;19638;49.080;11.896;2022-07-25T20:39:35;15.80;;;9.30;;
33266;SDS011;19638;49.080;11.896;2022-07-25T20:43:39;13.32;;;9.32;;
33266;SDS011;19638;49.080;11.896;2022-07-25T20:47:42;10.75;;;7.72;;
33266;SDS011;19638;49.080;11.896;2022-07-25T20:51:46;11.65;;;8.05;;
33266;SDS011;19638;49.080;11.896;2022-07-25T20:55:56;12.25;;;7.70;;
33266;SDS011;19638;49.080;11.896;2022-07-25T20:59:59;13.30;;;7.75;;
33266;SDS011;19638;49.080;11.896;2022-07-25T21:04:03;7.85;;;7.05;;
33266;SDS011;19638;49.080;11.896;2022-07-25T21:08:08;12.05;;;6.63;;
33266;SDS011;19638;49.080;11.896;2022-07-25T21:12:13;9.50;;;6.70;;
33266;SDS011;19638;49.080;11.896;2022-07-25T21:16:17;12.20;;;6.50;;
33266;SDS011;19638;49.080;11.896;2022-07-25T21:20:20;8.82;;;6.07;;
33266;SDS011;19638;49.080;11.896;2022-07-25T21:24:24;8.95;;;6.63;;
33266;SDS011;19638;49.080;11.896;2022-07-25T21:28:28;8.80;;;6.68;;
33266;SDS011;19638;49.080;11.896;2022-07-25T21:32:32;8.98;;;6.57;;
33266;SDS011;19638;49.080;11.896;2022-07-25T21:36:35;12.05;;;7.22;;
33266;SDS011;19638;49.080;11.896;2022-07-25T21:40:38;8.00;;;7.20;;
33266;SDS011;19638;49.080;11.896;2022-07-25T21:44:43;9.48;;;7.80;;
33266;SDS011;19638;49.080;11.896;2022-07-25T21:48:46;11.18;;;8.00;;
33266;SDS011;19638;49.080;11.896;2022-07-25T21:53:09;11.45;;;7.53;;
33266;SDS011;19638;49.080;11.896;2022-07-25T21:57:13;11.40;;;7.07;;
33266;SDS011;19638;49.080;11.896;2022-07-25T22:01:18;11.85;;;7.63;;
33266;SDS011;19638;49.080;11.896;2022-07-25T22:05:22;9.55;;;7.15;;
33266;SDS011;19638;49.080;11.896;2022-07-25T22:09:25;8.52;;;7.18;;
33266;SDS011;19638;49.080;11.896;2022-07-25T22:13:28;11.98;;;7.82;;
33266;SDS011;19638;49.080;11.896;2022-07-25T22:17:33;12.77;;;8.48;;
33266;SDS011;19638;49.080;11.896;2022-07-25T22:21:50;13.48;;;7.57;;
33266;SDS011;19638;49.080;11.896;2022-07-25T22:25:53;8.98;;;7.70;;
33266;SDS011;19638;49.080;11.896;2022-07-25T22:29:56;11.60;;;8.13;;
33266;SDS011;19638;49.080;11.896;2022-07-25T22:34:01;12.00;;;8.05;;
33266;SDS011;19638;49.080;11.896;2022-07-25T22:38:04;13.63;;;7.97;;
33266;SDS011;19638;49.080;11.896;2022-07-25T22:42:09;11.02;;;7.60;;
33266;SDS011;19638;49.080;11.896;2022-07-25T22:46:16;9.90;;;7.72;;
33266;SDS011;19638;49.080;11.896;2022-07-25T22:50:21;10.82;;;7.53;;
33266;SDS011;19638;49.080;11.896;2022-07-25T22:54:24;11.75;;;8.02;;
33266;SDS011;19638;49.080;11.896;2022-07-25T22:58:27;9.57;;;7.10;;
33266;SDS011;19638;49.080;11.896;2022-07-25T23:02:31;11.48;;;7.78;;
33266;SDS011;19638;49.080;11.896;2022-07-25T23:06:35;10.20;;;7.22;;
33266;SDS011;19638;49.080;11.896;2022-07-25T23:10:38;11.25;;;7.15;;
33266;SDS011;19638;49.080;11.896;2022-07-25T23:14:41;11.70;;;6.90;;
33266;SDS011;19638;49.080;11.896;2022-07-25T23:18:45;8.60;;;6.72;;
33266;SDS011;19638;49.080;11.896;2022-07-25T23:22:49;10.30;;;6.60;;
33266;SDS011;19638;49.080;11.896;2022-07-25T23:26:57;11.57;;;5.95;;
33266;SDS011;19638;49.080;11.896;2022-07-25T23:31:00;8.57;;;5.82;;
33266;SDS011;19638;49.080;11.896;2022-07-25T23:35:03;9.23;;;6.28;;
33266;SDS011;19638;49.080;11.896;2022-07-25T23:39:08;12.90;;;6.53;;
33266;SDS011;19638;49.080;11.896;2022-07-25T23:43:15;12.23;;;6.70;;
33266;SDS011;19638;49.080;11.896;2022-07-25T23:47:39;8.50;;;6.50;;
33266;SDS011;19638;49.080;11.896;2022-07-25T23:51:44;8.45;;;6.22;;
33266;SDS011;19638;49.080;11.896;2022-07-25T23:55:48;10.82;;;6.00;;
33266;SDS011;19638;49.080;11.896;2022-07-25T23:59:51;10.52;;;5.88;;
